Mill Run, PA (15464)

10:08 PM EST on February 12, 2016 (GMT -0500)
Top of Indian Head | | Change Station
CLOSE
Current Station
Personal Weather Station
Location: Champion, PA
Elevation: 1857 ft
Nearby Weather Stations
Active Advisory: Wind Chill Advisory

Elev 1857 ft 40.05 °N, 79.37 °W | Updated 12 minutes ago

Snow
Snow
15.8 °F
Feels Like 4 °F
N
9.4
Wind Variable Wind from WNW

Today
High -- | Low -- °F
--% Chance of Precip.
Yesterday
High -- | Low -- °F
Precip. -- in
Pressure 29.96 in
Visibility 7.0 miles
Clouds Few 1500 ft
Mostly Cloudy 2200 ft
Mostly Cloudy 3400 ft
Windchill 4 °F
Dew Point 15 °F
Humidity 98%
Rainfall 0.00 in
Snow Depth Not available.
7:14 AM 5:49 PM
Waxing Crescent, 26% visible
METAR KLBE 130245Z 22010KT 7SM -SN FEW015 BKN022 BKN034 M08/M09 A2996 RMK LAST
Pressure 29.96 in
Visibility 7.0 miles
Clouds Few 1500 ft
Mostly Cloudy 2200 ft
Mostly Cloudy 3400 ft
Windchill 4 °F
Dew Point 15 °F
Humidity 98%
Rainfall 0.00 in
Snow Depth Not available.
7:14 AM 5:49 PM
Waxing Crescent, 26% visible
METAR KLBE 130245Z 22010KT 7SM -SN FEW015 BKN022 BKN034 M08/M09 A2996 RMK LAST

10-Day Weather Forecast

Almanac

Astronomy

Feb. 12, 2016 Rise Set
Actual Time
Civil Twilight
Nautical Twilight
Astronomical Twilight
Moon
Length of Visible Light
Length of Day
Tomorrow will be .
, % of the Moon is Illuminated

Today's Extremes

State Highs State Lows

Community

WunderPhotos

Upload Photos

1,892,478 photos uploaded!

WunderBlog® & News

Nearby

Air Quality

  Air Quality AQ Index Pollutant
Not available.

Snow Depth

Station Depth Elevation

Earthquake Activity

City Distance Mag. Time & Date
Minimum magnitude displayed is 2.5.

Coastal Water Temperatures

Place Temperature

Stations

Nearby Weather Stations

Station Location Temp. Windchill Dew Point Humidity Wind Precip. Elev Updated Type
                   

Watches & Warnings

Wind Chill Advisory
Issued: 3:28 PM EST Feb. 12, 2016 – National Weather Service

... Wind Chill Advisory remains in effect from midnight tonight to
9 am EST Sunday...

* wind chill... as low as 23 below due to temperatures 4 below to
13 above zero... and winds northwest 10 to 20 mph with gusts up
to 40 mph.

* Impacts... frost bite and hypothermia are possible if
precautions are not taken.

Precautionary/preparedness actions...

A Wind Chill Advisory means that very cold air and strong winds
will combine to generate low wind chills. This will result in
frost bite and lead to hypothermia if precautions are not taken.
If you must venture outdoors... make sure you wear a hat and
gloves.